createdAt,value
2016-09-04T00:00:17.290Z,8.12
2016-09-04T00:01:17.284Z,8.13
2016-09-04T00:02:17.248Z,8.2
2016-09-04T00:03:17.260Z,8.2
2016-09-04T00:04:17.214Z,8.13
2016-09-04T00:05:17.224Z,8.12
2016-09-04T00:06:17.229Z,8.1
2016-09-04T00:07:17.215Z,8.2
2016-09-04T00:08:17.183Z,8.14
2016-09-04T00:09:17.174Z,8.13
2016-09-04T00:10:17.163Z,8.14
2016-09-04T00:11:17.182Z,8.2
2016-09-04T00:12:17.157Z,8.18
2016-09-04T00:13:17.152Z,8.2
2016-09-04T00:14:17.124Z,8.17
2016-09-04T00:15:17.128Z,8.12
2016-09-04T00:16:17.118Z,8.17
2016-09-04T00:17:17.103Z,8.18
2016-09-04T00:18:17.077Z,8.13
2016-09-04T00:19:17.090Z,8.17
2016-09-04T00:20:17.090Z,8.17
2016-09-04T00:21:17.072Z,8.17
2016-09-04T00:22:17.050Z,8.12
2016-09-04T00:23:17.050Z,8.07
2016-09-04T00:24:17.045Z,8.13
2016-09-04T00:25:17.022Z,8.17
2016-09-04T00:26:17.002Z,8.1
2016-09-04T00:27:16.990Z,8.12
2016-09-04T00:28:16.983Z,8.17
2016-09-04T00:29:16.975Z,8.13
2016-09-04T00:30:16.981Z,8.17
2016-09-04T00:31:16.974Z,8.2
2016-09-04T00:32:16.972Z,8.17
2016-09-04T00:33:16.965Z,8.21
2016-09-04T00:34:16.941Z,8.1
2016-09-04T00:35:16.906Z,8.12
2016-09-04T00:36:16.921Z,8.1
2016-09-04T00:37:16.926Z,8.2
2016-09-04T00:38:16.908Z,8.14
2016-09-04T00:39:16.885Z,8.2
2016-09-04T00:40:16.881Z,8.14
2016-09-04T00:41:16.857Z,8.02
2016-09-04T00:42:16.847Z,8.13
2016-09-04T00:43:16.843Z,8.14
2016-09-04T00:44:16.832Z,8.13
2016-09-04T00:45:16.843Z,8.17
2016-09-04T00:46:16.834Z,8.17
2016-09-04T00:47:16.812Z,8.17
2016-09-04T00:48:16.784Z,8.14
2016-09-04T00:49:16.785Z,8.13
2016-09-04T00:50:16.944Z,8.12
2016-09-04T00:51:16.769Z,8.12
2016-09-04T00:52:16.742Z,8.03
2016-09-04T00:53:16.738Z,7.99
2016-09-04T00:54:16.742Z,8.02
2016-09-04T00:55:16.735Z,8.03
2016-09-04T00:56:16.743Z,7.99
2016-09-04T00:57:16.706Z,8.02
2016-09-04T00:58:16.684Z,8.03
2016-09-04T00:59:16.709Z,8.13
2016-09-04T01:00:16.665Z,7.99
2016-09-04T01:01:16.674Z,8.02
2016-09-04T01:02:16.665Z,8.03
2016-09-04T01:03:16.655Z,7.99
2016-09-04T01:04:16.647Z,7.96
2016-09-04T01:05:16.652Z,8.04
2016-09-04T01:06:16.633Z,8.03
2016-09-04T01:07:16.606Z,8
2016-09-04T01:08:16.605Z,8.06
2016-09-04T01:09:16.602Z,8.04
2016-09-04T01:10:16.595Z,8.06
2016-09-04T01:11:16.570Z,8.13
2016-09-04T01:12:16.574Z,7.99
2016-09-04T01:13:16.568Z,8.02
2016-09-04T01:14:16.535Z,8.04
2016-09-04T01:15:16.546Z,8.03
2016-09-04T01:16:16.532Z,8.04
2016-09-04T01:17:16.527Z,8.12
2016-09-04T01:18:16.493Z,8.03
2016-09-04T01:19:16.507Z,8.03
2016-09-04T01:20:16.513Z,8.04
2016-09-04T01:21:16.467Z,8.02
2016-09-04T01:22:16.473Z,7.99
2016-09-04T01:23:16.471Z,8.03
2016-09-04T01:24:16.453Z,7.99
2016-09-04T01:25:16.452Z,8.04
2016-09-04T01:26:16.441Z,8.07
2016-09-04T01:27:16.413Z,7.99
2016-09-04T01:28:16.432Z,8.12
2016-09-04T01:29:16.399Z,8
2016-09-04T01:30:16.397Z,8.03
2016-09-04T01:31:16.399Z,8.09
2016-09-04T01:32:16.379Z,8.02
2016-09-04T01:33:16.360Z,8.03
2016-09-04T01:34:16.364Z,7.99
2016-09-04T01:35:16.354Z,8.07
2016-09-04T01:36:16.339Z,8.03
2016-09-04T01:37:16.344Z,8.04
2016-09-04T01:38:16.354Z,8
2016-09-04T01:39:16.326Z,7.99
2016-09-04T01:40:16.307Z,7.88
2016-09-04T01:41:16.315Z,8
2016-09-04T01:42:16.289Z,8
2016-09-04T01:43:16.273Z,7.99
2016-09-04T01:44:16.251Z,8.07
2016-09-04T01:45:16.241Z,8.07
2016-09-04T01:46:16.252Z,8.03
2016-09-04T01:47:16.236Z,8
2016-09-04T01:48:16.213Z,7.99
2016-09-04T01:49:16.224Z,8.03
2016-09-04T01:50:16.221Z,8.04
2016-09-04T01:51:16.206Z,7.96
2016-09-04T01:52:16.437Z,8
2016-09-04T01:53:16.201Z,7.95
2016-09-04T01:54:16.177Z,7.96
2016-09-04T01:55:16.167Z,8.04
2016-09-04T01:56:16.173Z,8.03
2016-09-04T01:57:16.135Z,7.95
2016-09-04T01:58:16.152Z,8.02
2016-09-04T01:59:16.110Z,7.95
2016-09-04T02:00:16.122Z,8
2016-09-04T02:01:16.114Z,8
2016-09-04T02:02:16.081Z,7.86
2016-09-04T02:03:16.093Z,7.94
2016-09-04T02:04:16.077Z,7.84
2016-09-04T02:05:16.066Z,7.86
2016-09-04T02:06:16.057Z,8
2016-09-04T02:07:16.044Z,7.92
2016-09-04T02:08:16.037Z,7.89
2016-09-04T02:09:16.035Z,7.86
2016-09-04T02:10:16.021Z,7.88
2016-09-04T02:11:16.018Z,7.84
2016-09-04T02:12:16.005Z,7.84
2016-09-04T02:13:16.003Z,7.89
2016-09-04T02:14:16.001Z,7.89
2016-09-04T02:15:15.969Z,7.88
2016-09-04T02:16:15.977Z,7.88
2016-09-04T02:17:15.956Z,7.91
2016-09-04T02:18:15.941Z,7.71
2016-09-04T02:19:15.942Z,7.79
2016-09-04T02:20:15.925Z,7.74
2016-09-04T02:21:15.923Z,7.73
2016-09-04T02:22:15.919Z,7.76
2016-09-04T02:23:15.891Z,7.71
2016-09-04T02:24:15.888Z,7.7
2016-09-04T02:25:15.887Z,7.77
2016-09-04T02:26:15.860Z,7.82
2016-09-04T02:27:15.854Z,7.86
2016-09-04T02:28:15.862Z,7.84
2016-09-04T02:29:15.844Z,7.73
2016-09-04T02:30:15.841Z,7.77
2016-09-04T02:31:15.811Z,7.71
2016-09-04T02:32:15.810Z,7.69
2016-09-04T02:33:15.806Z,7.74
2016-09-04T02:34:15.803Z,7.76
2016-09-04T02:35:15.790Z,7.79
2016-09-04T02:36:15.768Z,7.74
2016-09-04T02:37:15.758Z,7.84
2016-09-04T02:38:15.752Z,7.79
2016-09-04T02:39:15.730Z,7.79
2016-09-04T02:40:15.740Z,7.82
2016-09-04T02:41:15.698Z,7.77
2016-09-04T02:42:15.714Z,7.71
2016-09-04T02:43:15.683Z,7.73
2016-09-04T02:44:15.689Z,7.76
2016-09-04T02:45:15.665Z,7.74
2016-09-04T02:46:15.650Z,7.69
2016-09-04T02:47:15.644Z,7.57
2016-09-04T02:48:15.655Z,7.55
2016-09-04T02:49:15.639Z,7.63
2016-09-04T02:50:15.633Z,7.57
2016-09-04T02:51:15.607Z,7.54
2016-09-04T02:52:15.622Z,7.58
2016-09-04T02:53:15.597Z,7.55
2016-09-04T02:54:15.595Z,7.54
2016-09-04T02:55:15.556Z,7.5
2016-09-04T02:56:15.566Z,7.47
2016-09-04T02:57:15.555Z,7.52
2016-09-04T02:58:15.562Z,7.5
2016-09-04T02:59:15.529Z,7.54
2016-09-04T03:00:15.536Z,7.5
2016-09-04T03:01:15.521Z,7.55
2016-09-04T03:02:15.506Z,7.52
2016-09-04T03:03:15.502Z,7.48
2016-09-04T03:04:15.489Z,7.54
2016-09-04T03:05:15.469Z,7.52
2016-09-04T03:06:15.459Z,7.5
2016-09-04T03:07:15.451Z,7.57
2016-09-04T03:08:15.443Z,7.5
2016-09-04T03:09:15.434Z,7.52
2016-09-04T03:10:15.423Z,7.55
2016-09-04T03:11:15.408Z,7.5
2016-09-04T03:12:15.383Z,7.42
2016-09-04T03:13:15.376Z,7.51
2016-09-04T03:14:15.391Z,7.51
2016-09-04T03:15:15.368Z,7.52
2016-09-04T03:16:15.347Z,7.39
2016-09-04T03:17:15.360Z,7.45
2016-09-04T03:18:15.329Z,7.45
2016-09-04T03:19:15.322Z,7.47
2016-09-04T03:20:15.329Z,7.36
2016-09-04T03:21:15.292Z,7.33
2016-09-04T03:22:15.283Z,7.51
2016-09-04T03:23:15.298Z,7.45
2016-09-04T03:24:15.271Z,7.34
2016-09-04T03:25:15.283Z,7.45
2016-09-04T03:26:15.258Z,7.44
2016-09-04T03:27:15.224Z,7.42
2016-09-04T03:28:15.240Z,7.42
2016-09-04T03:29:15.231Z,7.41
2016-09-04T03:30:15.218Z,7.44
2016-09-04T03:31:15.209Z,7.45
2016-09-04T03:32:15.204Z,7.34
2016-09-04T03:33:15.916Z,7.48
2016-09-04T03:34:15.181Z,7.41
2016-09-04T03:35:15.172Z,7.37
2016-09-04T03:36:15.161Z,7.36
2016-09-04T03:37:15.141Z,7.37
2016-09-04T03:38:15.125Z,7.39
2016-09-04T03:39:15.127Z,7.34
2016-09-04T03:40:15.116Z,7.3
2016-09-04T03:41:15.093Z,7.32
2016-09-04T03:42:15.074Z,7.32
2016-09-04T03:43:15.078Z,7.29
2016-09-04T03:44:15.054Z,7.32
2016-09-04T03:45:15.072Z,7.26
2016-09-04T03:46:15.041Z,7.27
2016-09-04T03:47:15.046Z,7.36
2016-09-04T03:48:15.049Z,7.29
2016-09-04T03:49:15.038Z,7.29
2016-09-04T03:50:15.030Z,7.32
2016-09-04T03:51:15.002Z,7.36
2016-09-04T03:52:14.979Z,7.37
2016-09-04T03:53:14.974Z,7.3
2016-09-04T03:54:14.951Z,7.29
2016-09-04T03:55:14.956Z,7.3
2016-09-04T03:56:14.954Z,7.33
2016-09-04T03:57:14.930Z,7.34
2016-09-04T03:58:14.934Z,7.3
2016-09-04T03:59:14.928Z,7.33
2016-09-04T04:00:14.917Z,7.29
2016-09-04T04:01:14.901Z,7.29
2016-09-04T04:02:14.894Z,7.32
2016-09-04T04:03:14.883Z,7.29
2016-09-04T04:04:14.888Z,7.3
2016-09-04T04:05:14.893Z,7.33
2016-09-04T04:06:14.860Z,7.33
2016-09-04T04:07:14.842Z,7.29
2016-09-04T04:08:14.841Z,7.32
2016-09-04T04:09:14.823Z,7.29
2016-09-04T04:10:14.809Z,7.34
2016-09-04T04:11:14.782Z,7.21
2016-09-04T04:12:14.790Z,7.27
2016-09-04T04:13:14.772Z,7.29
2016-09-04T04:14:14.786Z,7.27
2016-09-04T04:15:14.770Z,7.21
2016-09-04T04:16:14.741Z,7.21
2016-09-04T04:17:14.758Z,7.24
2016-09-04T04:18:14.724Z,7.27
2016-09-04T04:19:14.717Z,7.27
2016-09-04T04:20:14.713Z,7.27
2016-09-04T04:21:14.706Z,7.27
2016-09-04T04:22:14.694Z,7.3
2016-09-04T04:23:14.691Z,7.29
2016-09-04T04:24:14.663Z,7.3
2016-09-04T04:25:14.662Z,7.24
2016-09-04T04:26:14.654Z,7.32
2016-09-04T04:27:14.649Z,7.29
2016-09-04T04:28:14.612Z,7.29
2016-09-04T04:29:14.608Z,7.33
2016-09-04T04:30:14.624Z,7.42
2016-09-04T04:31:14.616Z,7.3
2016-09-04T04:32:14.584Z,7.27
2016-09-04T04:33:14.593Z,7.29
2016-09-04T04:34:14.558Z,7.29
2016-09-04T04:35:14.553Z,7.27
2016-09-04T04:36:14.545Z,7.27
2016-09-04T04:37:14.539Z,7.3
2016-09-04T04:38:14.523Z,7.29
2016-09-04T04:39:14.528Z,7.33
2016-09-04T04:40:14.509Z,7.27
2016-09-04T04:41:14.500Z,7.3
2016-09-04T04:42:14.496Z,7.24
2016-09-04T04:43:14.486Z,7.24
2016-09-04T04:44:14.457Z,7.24
2016-09-04T04:45:14.446Z,7.18
2016-09-04T04:46:14.466Z,7.23
2016-09-04T04:47:14.433Z,7.24
2016-09-04T04:48:14.433Z,7.21
2016-09-04T04:49:14.417Z,7.27
2016-09-04T04:50:14.402Z,7.24
2016-09-04T04:51:14.392Z,7.29
2016-09-04T04:52:14.382Z,7.3
2016-09-04T04:53:14.448Z,7.29
2016-09-04T04:54:14.344Z,7.27
2016-09-04T04:55:14.347Z,7.47
2016-09-04T04:56:14.359Z,7.42
2016-09-04T04:57:14.340Z,7.47
2016-09-04T04:58:14.319Z,7.52
2016-09-04T04:59:15.038Z,7.44
2016-09-04T05:00:14.296Z,7.54
2016-09-04T05:01:14.309Z,7.57
2016-09-04T05:02:14.262Z,7.57
2016-09-04T05:03:14.269Z,7.54
2016-09-04T05:04:14.250Z,7.62
2016-09-04T05:05:14.241Z,7.6
2016-09-04T05:06:14.254Z,7.66
2016-09-04T05:07:14.231Z,7.54
2016-09-04T05:08:14.205Z,7.66
2016-09-04T05:09:14.225Z,7.57
2016-09-04T05:10:14.186Z,7.62
2016-09-04T05:11:14.191Z,7.74
2016-09-04T05:12:14.194Z,7.74
2016-09-04T05:13:14.146Z,7.69
2016-09-04T05:14:14.146Z,7.7
2016-09-04T05:15:14.149Z,7.73
2016-09-04T05:16:14.121Z,7.66
2016-09-04T05:17:14.113Z,7.7
2016-09-04T05:18:14.116Z,7.63
2016-09-04T05:19:14.117Z,7.63
2016-09-04T05:20:14.100Z,7.57
2016-09-04T05:21:14.092Z,7.63
2016-09-04T05:22:14.082Z,7.7
2016-09-04T05:23:14.069Z,7.58
2016-09-04T05:24:14.067Z,7.58
2016-09-04T05:25:14.044Z,7.71
2016-09-04T05:26:14.052Z,7.76
2016-09-04T05:27:14.025Z,7.67
2016-09-04T05:28:14.006Z,7.7
2016-09-04T05:29:13.993Z,7.71
2016-09-04T05:30:13.968Z,7.82
2016-09-04T05:31:13.995Z,7.81
2016-09-04T05:32:13.956Z,7.73
2016-09-04T05:33:13.961Z,7.82
2016-09-04T05:34:13.957Z,7.79
2016-09-04T05:35:13.939Z,7.91
2016-09-04T05:36:13.923Z,7.88
2016-09-04T05:37:13.909Z,7.94
2016-09-04T05:38:13.899Z,7.82
2016-09-04T05:39:13.923Z,7.84
2016-09-04T05:40:13.878Z,7.85
2016-09-04T05:41:13.874Z,7.85
2016-09-04T05:42:13.845Z,7.89
2016-09-04T05:43:13.862Z,7.92
2016-09-04T05:44:13.845Z,7.96
2016-09-04T05:45:13.826Z,8.17
2016-09-04T05:46:13.815Z,8.31
2016-09-04T05:47:13.801Z,8.42
2016-09-04T05:48:13.807Z,8.24
2016-09-04T05:49:13.790Z,8.03
2016-09-04T05:50:13.779Z,8.27
2016-09-04T05:51:13.764Z,8.37
2016-09-04T05:52:13.768Z,8.45
2016-09-04T05:53:13.802Z,8.47
2016-09-04T05:54:14.441Z,8.5
2016-09-04T05:55:13.742Z,8.5
2016-09-04T05:56:13.705Z,8.42
2016-09-04T05:57:13.721Z,8.68
2016-09-04T05:58:13.686Z,8.82
2016-09-04T05:59:13.675Z,8.79
2016-09-04T06:00:13.688Z,8.7
2016-09-04T06:01:13.686Z,8.91
2016-09-04T06:02:13.638Z,9.12
2016-09-04T06:03:13.630Z,9.55
2016-09-04T06:04:13.635Z,9.81
2016-09-04T06:05:13.634Z,9.77
2016-09-04T06:06:14.306Z,9.26
2016-09-04T06:07:13.606Z,9.01
2016-09-04T06:08:13.597Z,8.96
2016-09-04T06:09:13.611Z,9.23
2016-09-04T06:10:13.584Z,8.86
2016-09-04T06:11:13.566Z,9.1
2016-09-04T06:12:13.575Z,9.63
2016-09-04T06:13:13.552Z,9.65
2016-09-04T06:14:13.533Z,9.52
2016-09-04T06:15:13.540Z,9.8
2016-09-04T06:16:13.514Z,9.56
2016-09-04T06:17:13.513Z,9.24
2016-09-04T06:18:13.505Z,9.56
2016-09-04T06:19:13.499Z,9.73
2016-09-04T06:20:13.495Z,9.75
2016-09-04T06:21:13.469Z,9.65
2016-09-04T06:22:13.471Z,9.85
2016-09-04T06:23:13.466Z,10.2
2016-09-04T06:24:13.458Z,10.04
2016-09-04T06:25:13.448Z,10.06
2016-09-04T06:26:13.442Z,10.25
2016-09-04T06:27:13.414Z,10.43
2016-09-04T06:28:13.414Z,10.57
2016-09-04T06:29:13.402Z,10.34
2016-09-04T06:30:13.413Z,9.65
2016-09-04T06:31:13.376Z,9.91
2016-09-04T06:32:13.370Z,10.22
2016-09-04T06:33:13.368Z,9.89
2016-09-04T06:34:13.381Z,9.77
2016-09-04T06:35:13.351Z,10.17
2016-09-04T06:36:13.351Z,9.86
2016-09-04T06:37:13.333Z,9.86
2016-09-04T06:38:13.344Z,10.04
2016-09-04T06:39:13.324Z,10.43
2016-09-04T06:40:13.294Z,10.84
2016-09-04T06:41:13.311Z,10.52
2016-09-04T06:42:13.291Z,10.76
2016-09-04T06:43:13.283Z,10.49
2016-09-04T06:44:13.281Z,10.04
2016-09-04T06:45:13.252Z,10.14
2016-09-04T06:46:13.242Z,10.1
2016-09-04T06:47:13.248Z,9.93
2016-09-04T06:48:13.232Z,10.09
2016-09-04T06:49:13.222Z,10.68
2016-09-04T06:50:13.243Z,10.72
2016-09-04T06:51:13.219Z,10.68
2016-09-04T06:52:13.203Z,11.01
2016-09-04T06:53:13.248Z,11.62
2016-09-04T06:54:13.208Z,11.63
2016-09-04T06:55:13.173Z,10.94
2016-09-04T06:56:13.158Z,11.31
2016-09-04T06:57:13.169Z,11.6
2016-09-04T06:58:13.142Z,11.45
2016-09-04T06:59:13.155Z,10.98
2016-09-04T07:00:13.158Z,10.91
2016-09-04T07:01:13.133Z,10.65
2016-09-04T07:02:13.123Z,10.63
2016-09-04T07:03:13.115Z,10.93
2016-09-04T07:04:13.096Z,10.62
2016-09-04T07:05:13.094Z,10.43
2016-09-04T07:06:13.084Z,10.49
2016-09-04T07:07:13.092Z,10.43
2016-09-04T07:08:13.105Z,10.36
2016-09-04T07:09:13.067Z,10.24
2016-09-04T07:10:13.047Z,10.28
2016-09-04T07:11:13.042Z,10.32
2016-09-04T07:12:13.049Z,10.49
2016-09-04T07:13:13.040Z,10.42
2016-09-04T07:14:13.009Z,10.24
2016-09-04T07:15:13.038Z,10.43
2016-09-04T07:16:13.028Z,10.14
2016-09-04T07:17:13.000Z,10.16
2016-09-04T07:18:13.012Z,10.02
2016-09-04T07:19:12.980Z,9.98
2016-09-04T07:20:12.977Z,9.96
2016-09-04T07:21:12.968Z,9.99
2016-09-04T07:22:12.940Z,10.2
2016-09-04T07:23:12.935Z,10.16
2016-09-04T07:24:12.954Z,10.17
2016-09-04T07:25:12.937Z,10.13
2016-09-04T07:26:12.925Z,10.18
2016-09-04T07:27:12.905Z,10.69
2016-09-04T07:28:12.903Z,10.68
2016-09-04T07:29:12.895Z,10.87
2016-09-04T07:30:12.892Z,11.01
2016-09-04T07:31:12.878Z,11.02
2016-09-04T07:32:12.888Z,11.05
2016-09-04T07:33:12.855Z,11.05
2016-09-04T07:34:12.860Z,10.9
2016-09-04T07:35:12.848Z,11.16
2016-09-04T07:36:12.853Z,11.24
2016-09-04T07:37:12.816Z,11.27
2016-09-04T07:38:12.825Z,11.08
2016-09-04T07:39:12.798Z,11.24
2016-09-04T07:40:12.807Z,11.28
2016-09-04T07:41:12.795Z,11.3
2016-09-04T07:42:12.786Z,11.51
2016-09-04T07:43:12.787Z,11.75
2016-09-04T07:44:12.792Z,12.18
2016-09-04T07:45:12.770Z,11.94
2016-09-04T07:46:12.777Z,11.44
2016-09-04T07:47:12.749Z,11.28
2016-09-04T07:48:12.752Z,11.06
2016-09-04T07:49:12.755Z,11.09
2016-09-04T07:50:12.726Z,10.98
2016-09-04T07:51:12.703Z,10.7
2016-09-04T07:52:12.696Z,10.68
2016-09-04T07:53:12.703Z,10.8
2016-09-04T07:54:12.716Z,11.46
2016-09-04T07:55:12.693Z,11.67
2016-09-04T07:56:12.661Z,11.9
2016-09-04T07:57:12.692Z,12.16
2016-09-04T07:58:12.668Z,12.55
2016-09-04T07:59:12.672Z,12.41
2016-09-04T08:00:12.668Z,12.54
2016-09-04T08:01:12.634Z,12.21
2016-09-04T08:02:12.626Z,11.72
2016-09-04T08:03:12.643Z,11.98
2016-09-04T08:04:12.614Z,11.78
2016-09-04T08:05:12.610Z,11.98
2016-09-04T08:06:12.620Z,12.01
2016-09-04T08:07:12.597Z,11.62
2016-09-04T08:08:12.578Z,11.28
2016-09-04T08:09:12.605Z,10.95
2016-09-04T08:10:12.579Z,10.9
2016-09-04T08:11:12.577Z,11.06
2016-09-04T08:12:12.867Z,11.12
2016-09-04T08:13:12.560Z,11.05
2016-09-04T08:14:12.541Z,10.9
2016-09-04T08:15:12.540Z,10.58
2016-09-04T08:16:12.539Z,10.6
2016-09-04T08:17:13.227Z,10.62
2016-09-04T08:18:12.524Z,10.69
2016-09-04T08:19:12.528Z,10.98
2016-09-04T08:20:12.510Z,10.9
2016-09-04T08:21:12.485Z,10.86
2016-09-04T08:22:12.484Z,11.11
2016-09-04T08:23:12.474Z,11.11
2016-09-04T08:24:12.487Z,10.76
2016-09-04T08:25:12.473Z,10.84
2016-09-04T08:26:12.461Z,10.68
2016-09-04T08:27:12.440Z,10.63
2016-09-04T08:28:12.457Z,10.52
2016-09-04T08:29:12.444Z,10.63
2016-09-04T08:30:12.428Z,10.65
2016-09-04T08:31:12.399Z,10.88
2016-09-04T08:32:12.397Z,10.72
2016-09-04T08:33:12.406Z,10.8
2016-09-04T08:34:12.381Z,11.03
2016-09-04T08:35:12.383Z,11.3
2016-09-04T08:36:12.384Z,11.3
2016-09-04T08:37:12.362Z,10.8
2016-09-04T08:38:12.359Z,10.65
2016-09-04T08:39:12.350Z,10.58
2016-09-04T08:40:12.362Z,10.32
2016-09-04T08:41:12.322Z,10.01
2016-09-04T08:42:12.331Z,10.38
2016-09-04T08:43:12.331Z,10.87
2016-09-04T08:44:12.326Z,11.59
2016-09-04T08:45:12.307Z,11.38
2016-09-04T08:46:12.314Z,11.85
2016-09-04T08:47:12.306Z,12.41
2016-09-04T08:48:12.281Z,12.05
2016-09-04T08:49:12.290Z,11.96
2016-09-04T08:50:12.267Z,12.13
2016-09-04T08:51:12.261Z,12.13
2016-09-04T08:52:12.252Z,12.59
2016-09-04T08:53:12.226Z,12.8
2016-09-04T08:54:12.231Z,12.51
2016-09-04T08:55:12.229Z,11.59
2016-09-04T08:56:12.216Z,11.36
2016-09-04T08:57:12.236Z,11.63
2016-09-04T08:58:12.201Z,11.46
2016-09-04T08:59:12.211Z,11.44
2016-09-04T09:00:12.168Z,11.27
2016-09-04T09:01:12.175Z,11.26
2016-09-04T09:02:12.192Z,11.11
2016-09-04T09:03:12.190Z,11.42
2016-09-04T09:04:12.148Z,11.69
2016-09-04T09:05:12.135Z,11.82
2016-09-04T09:06:12.148Z,12.05
2016-09-04T09:07:12.129Z,11.06
2016-09-04T09:08:12.119Z,11.24
2016-09-04T09:09:12.139Z,11.16
2016-09-04T09:10:12.122Z,11.57
2016-09-04T09:11:12.107Z,11.48
2016-09-04T09:12:12.110Z,11.23
2016-09-04T09:13:12.085Z,11.46
2016-09-04T09:14:12.070Z,11.6
2016-09-04T09:15:12.058Z,11.36
2016-09-04T09:16:12.071Z,11.33
2016-09-04T09:17:12.071Z,11.06
2016-09-04T09:18:12.064Z,11.09
2016-09-04T09:19:12.049Z,11.12
2016-09-04T09:20:12.038Z,11.59
2016-09-04T09:21:12.054Z,11.57
2016-09-04T09:22:12.010Z,11.87
2016-09-04T09:23:12.697Z,12.31
2016-09-04T09:24:12.013Z,12.05
2016-09-04T09:25:12.019Z,12.55
2016-09-04T09:26:11.999Z,12.55
2016-09-04T09:27:11.991Z,12.07
2016-09-04T09:28:11.975Z,12.38
2016-09-04T09:29:11.983Z,12.16
2016-09-04T09:30:11.962Z,12.46
2016-09-04T09:31:11.960Z,12.34
2016-09-04T09:32:11.954Z,12.55
2016-09-04T09:33:11.953Z,12.52
2016-09-04T09:34:11.929Z,12.37
2016-09-04T09:35:11.931Z,12.55
2016-09-04T09:36:11.918Z,12.3
2016-09-04T09:37:11.919Z,11.82
2016-09-04T09:38:11.891Z,11.57
2016-09-04T09:39:11.904Z,11.74
2016-09-04T09:40:11.877Z,11.59
2016-09-04T09:41:11.883Z,11.75
2016-09-04T09:42:11.874Z,11.75
2016-09-04T09:43:11.863Z,11.57
2016-09-04T09:44:11.850Z,11.49
2016-09-04T09:45:11.874Z,11.82
2016-09-04T09:46:11.868Z,11.93
2016-09-04T09:47:11.847Z,12.18
2016-09-04T09:48:11.832Z,12.66
2016-09-04T09:49:11.814Z,12.38
2016-09-04T09:50:11.832Z,12.84
2016-09-04T09:51:11.813Z,13.1
2016-09-04T09:52:11.803Z,13.63
2016-09-04T09:53:11.803Z,14.61
2016-09-04T09:54:12.318Z,15.2
2016-09-04T09:55:11.807Z,14.66
2016-09-04T09:56:11.769Z,14.44
2016-09-04T09:57:11.792Z,13.71
2016-09-04T09:58:11.759Z,13.71
2016-09-04T09:59:11.773Z,14.24
2016-09-04T10:00:11.793Z,14.3
2016-09-04T10:01:11.748Z,14.86
2016-09-04T10:02:11.748Z,15.01
2016-09-04T10:03:11.771Z,15.12
2016-09-04T10:04:11.734Z,14.94
2016-09-04T10:05:11.708Z,15.38
2016-09-04T10:06:11.715Z,15.18
2016-09-04T10:07:11.703Z,14.24
2016-09-04T10:08:11.721Z,13.55
2016-09-04T10:09:11.709Z,13.62
2016-09-04T10:10:11.712Z,14.2
2016-09-04T10:11:11.698Z,14.26
2016-09-04T10:12:11.703Z,13.63
2016-09-04T10:13:11.680Z,13.65
2016-09-04T10:14:11.684Z,13.38
2016-09-04T10:15:11.681Z,13.32
2016-09-04T10:16:11.665Z,13.47
2016-09-04T10:17:11.668Z,12.95
2016-09-04T10:18:11.668Z,12.91
2016-09-04T10:19:11.633Z,13.06
2016-09-04T10:20:11.638Z,13.57
2016-09-04T10:21:11.645Z,13.66
2016-09-04T10:22:11.634Z,13.46
2016-09-04T10:23:11.637Z,13.69
2016-09-04T10:24:11.625Z,13.57
2016-09-04T10:25:11.617Z,12.94
2016-09-04T10:26:11.606Z,12.66
2016-09-04T10:27:11.614Z,12.58
2016-09-04T10:28:11.578Z,12.92
2016-09-04T10:29:11.588Z,12.29
2016-09-04T10:30:11.571Z,12.55
2016-09-04T10:31:11.583Z,12.52
2016-09-04T10:32:11.579Z,12.91
2016-09-04T10:33:11.548Z,13.17
2016-09-04T10:34:11.542Z,12.81
2016-09-04T10:35:11.548Z,13.22
2016-09-04T10:36:11.564Z,13.72
2016-09-04T10:37:11.543Z,13.41
2016-09-04T10:38:11.513Z,12.87
2016-09-04T10:39:11.516Z,12.58
2016-09-04T10:40:11.503Z,12.36
2016-09-04T10:41:11.523Z,12.34
2016-09-04T10:42:11.494Z,12.18
2016-09-04T10:43:11.496Z,12.55
2016-09-04T10:44:11.494Z,12.52
2016-09-04T10:45:11.502Z,12.88
2016-09-04T10:46:11.477Z,12.96
2016-09-04T10:47:11.485Z,12.67
2016-09-04T10:48:11.465Z,12.84
2016-09-04T10:49:11.479Z,12.95
2016-09-04T10:50:11.454Z,13.1
2016-09-04T10:51:11.464Z,12.89
2016-09-04T10:52:11.447Z,13.32
2016-09-04T10:53:11.449Z,13.35
2016-09-04T10:54:11.440Z,13.03
2016-09-04T10:55:11.410Z,12.67
2016-09-04T10:56:11.418Z,12.36
2016-09-04T10:57:11.429Z,11.81
2016-09-04T10:58:11.390Z,11.59
2016-09-04T10:59:11.411Z,11.69
2016-09-04T11:00:11.412Z,12
2016-09-04T11:01:11.396Z,11.9
2016-09-04T11:02:11.370Z,11.75
2016-09-04T11:03:11.355Z,11.26
2016-09-04T11:04:11.365Z,11.23
2016-09-04T11:05:11.359Z,11.44
2016-09-04T11:06:11.359Z,11.75
2016-09-04T11:07:11.357Z,12
2016-09-04T11:08:11.358Z,12.04
2016-09-04T11:09:11.327Z,12.16
2016-09-04T11:10:11.339Z,12.31
2016-09-04T11:11:11.338Z,11.59
2016-09-04T11:12:11.326Z,11.23
2016-09-04T11:13:11.316Z,10.83
2016-09-04T11:14:11.315Z,10.76
2016-09-04T11:15:11.311Z,11.26
2016-09-04T11:16:11.290Z,11.26
2016-09-04T11:17:11.286Z,11.12
2016-09-04T11:18:11.270Z,11.09
2016-09-04T11:19:11.269Z,10.94
2016-09-04T11:20:11.260Z,10.66
2016-09-04T11:21:11.245Z,10.75
2016-09-04T11:22:11.242Z,10.86
2016-09-04T11:23:11.219Z,10.88
2016-09-04T11:24:11.224Z,11.08
2016-09-04T11:25:11.221Z,10.87
2016-09-04T11:26:11.231Z,10.84
2016-09-04T11:27:11.198Z,10.69
2016-09-04T11:28:11.218Z,10.52
2016-09-04T11:29:11.213Z,10.65
2016-09-04T11:30:11.189Z,10.76
2016-09-04T11:31:11.196Z,10.94
2016-09-04T11:32:11.159Z,10.81
2016-09-04T11:33:11.175Z,10.6
2016-09-04T11:34:11.153Z,10.54
2016-09-04T11:35:11.152Z,10.62
2016-09-04T11:36:11.159Z,10.49
2016-09-04T11:37:11.129Z,10.44
2016-09-04T11:38:11.109Z,10.47
2016-09-04T11:39:11.125Z,10.25
2016-09-04T11:40:11.094Z,10.32
2016-09-04T11:41:11.105Z,10.52
2016-09-04T11:42:11.111Z,10.25
2016-09-04T11:43:11.086Z,10.26
2016-09-04T11:44:11.097Z,10.09
2016-09-04T11:45:11.054Z,10.11
2016-09-04T11:46:11.076Z,9.93
2016-09-04T11:47:11.048Z,9.88
2016-09-04T11:48:11.049Z,9.77
2016-09-04T11:49:11.054Z,9.88
2016-09-04T11:50:11.044Z,9.83
2016-09-04T11:51:11.024Z,9.92
2016-09-04T11:52:11.027Z,10.04
2016-09-04T11:53:10.999Z,10.17
2016-09-04T11:54:11.190Z,10.34
2016-09-04T11:55:10.973Z,10.32
2016-09-04T11:56:10.967Z,10.42
2016-09-04T11:57:10.978Z,10.72
2016-09-04T11:58:10.967Z,10.8
2016-09-04T11:59:10.971Z,10.76
2016-09-04T12:00:10.935Z,10.63
2016-09-04T12:01:10.943Z,10.9
2016-09-04T12:02:10.933Z,11.09
2016-09-04T12:03:10.916Z,11.16
2016-09-04T12:04:10.931Z,11.46
2016-09-04T12:05:10.908Z,11.67
2016-09-04T12:06:10.903Z,12.05
2016-09-04T12:07:10.918Z,12.08
2016-09-04T12:08:10.878Z,11.9
2016-09-04T12:09:10.861Z,11.54
2016-09-04T12:10:10.863Z,11.38
2016-09-04T12:11:10.856Z,11.39
2016-09-04T12:12:10.847Z,11.54
2016-09-04T12:13:10.841Z,11.57
2016-09-04T12:14:10.837Z,11.21
2016-09-04T12:15:10.841Z,11.35
2016-09-04T12:16:10.832Z,11.17
2016-09-04T12:17:10.813Z,10.95
2016-09-04T12:18:10.789Z,10.88
2016-09-04T12:19:10.799Z,10.95
2016-09-04T12:20:10.797Z,10.73
2016-09-04T12:21:10.775Z,10.65
2016-09-04T12:22:10.773Z,10.51
2016-09-04T12:23:10.770Z,10.29
2016-09-04T12:24:10.762Z,10.38
2016-09-04T12:25:10.764Z,10.47
2016-09-04T12:26:10.754Z,10.43
2016-09-04T12:27:10.755Z,10.55
2016-09-04T12:28:11.440Z,10.49
2016-09-04T12:29:10.725Z,10.32
2016-09-04T12:30:10.740Z,10.31
2016-09-04T12:31:10.717Z,10.43
2016-09-04T12:32:10.703Z,10.54
2016-09-04T12:33:10.702Z,10.51
2016-09-04T12:34:10.687Z,10.31
2016-09-04T12:35:10.680Z,10.43
2016-09-04T12:36:10.680Z,10.16
2016-09-04T12:37:10.669Z,10.22
2016-09-04T12:38:10.669Z,10.29
2016-09-04T12:39:10.644Z,10.29
2016-09-04T12:40:10.625Z,10.66
2016-09-04T12:41:10.635Z,10.69
2016-09-04T12:42:10.627Z,10.68
2016-09-04T12:43:10.636Z,10.7
2016-09-04T12:44:10.631Z,10.69
2016-09-04T12:45:10.599Z,10.44
2016-09-04T12:46:10.595Z,10.6
2016-09-04T12:47:10.588Z,10.94
2016-09-04T12:48:10.570Z,10.91
2016-09-04T12:49:10.595Z,11.03
2016-09-04T12:50:10.589Z,10.66
2016-09-04T12:51:10.554Z,10.62
2016-09-04T12:52:10.555Z,10.6
2016-09-04T12:53:10.531Z,10.31
2016-09-04T12:54:10.532Z,10.17
2016-09-04T12:55:10.519Z,10.38
2016-09-04T12:56:10.523Z,10.44
2016-09-04T12:57:10.522Z,10.42
2016-09-04T12:58:10.509Z,10.24
2016-09-04T12:59:10.490Z,10.28
2016-09-04T13:00:10.488Z,9.86
2016-09-04T13:01:10.499Z,9.7
2016-09-04T13:02:10.472Z,9.62
2016-09-04T13:03:11.181Z,9.74
2016-09-04T13:04:10.456Z,9.59
2016-09-04T13:05:10.466Z,9.42
2016-09-04T13:06:10.448Z,9.44
2016-09-04T13:07:10.438Z,9.44
2016-09-04T13:08:10.415Z,9.3
2016-09-04T13:09:10.436Z,9.38